DAL202 KPHL-KJFK
Flight info
| Callsign | DAL202 |
|---|---|
| Flight time | 0h 29m |
| Altitude | 17000 |
| Route | DITCH T416 WINKK V44 CAMRN |
| Aircraft | B738/M-SDE2E3FGHIRWXY/LB1 |
Departure
| Time | 2026-05-08 19:39 |
|---|---|
| Airport | Philadelphia International Airport (KPHL) |
Arrival
| Time | 2026-05-08 20:09 |
|---|---|
| Airport | John F. Kennedy International Airport (KJFK) |
| Time | Latitude | Longitude | Altitude | Speed | Heading |
|---|---|---|---|---|---|
| 2026-05-08 18:56 | 39.87833 | -75.23677 | 20 ft | 0 kts | 199° |
| 2026-05-08 19:21 | 39.87845 | -75.23674 | 22 ft | 2 kts | 188° |
| 2026-05-08 19:21 | 39.87866 | -75.23670 | 20 ft | 2 kts | 188° |
| 2026-05-08 19:22 | 39.87877 | -75.23668 | 21 ft | 2 kts | 186° |
| 2026-05-08 19:22 | 39.87894 | -75.23668 | 20 ft | 2 kts | 146° |
| 2026-05-08 19:22 | 39.87902 | -75.23679 | 21 ft | 1 kts | 103° |
| 2026-05-08 19:22 | 39.87902 | -75.23683 | 20 ft | 0 kts | 101° |
| 2026-05-08 19:27 | 39.87902 | -75.23680 | 20 ft | 3 kts | 107° |
| 2026-05-08 19:28 | 39.87883 | -75.23605 | 20 ft | 13 kts | 108° |
| 2026-05-08 19:28 | 39.87825 | -75.23494 | 21 ft | 15 kts | 150° |
| 2026-05-08 19:28 | 39.87725 | -75.23504 | 21 ft | 15 kts | 199° |
| 2026-05-08 19:28 | 39.87630 | -75.23545 | 21 ft | 14 kts | 199° |
| 2026-05-08 19:29 | 39.87542 | -75.23592 | 19 ft | 13 kts | 210° |
| 2026-05-08 19:29 | 39.87473 | -75.23670 | 19 ft | 13 kts | 228° |
| 2026-05-08 19:29 | 39.87449 | -75.23705 | 20 ft | 0 kts | 228° |
| 2026-05-08 19:30 | 39.87448 | -75.23707 | 20 ft | 2 kts | 228° |
| 2026-05-08 19:30 | 39.87425 | -75.23744 | 20 ft | 9 kts | 237° |
| 2026-05-08 19:31 | 39.87398 | -75.23841 | 21 ft | 13 kts | 252° |
| 2026-05-08 19:31 | 39.87358 | -75.23874 | 23 ft | 6 kts | 180° |
| 2026-05-08 19:31 | 39.87318 | -75.23865 | 20 ft | 6 kts | 168° |
| 2026-05-08 19:31 | 39.87279 | -75.23851 | 21 ft | 7 kts | 164° |
| 2026-05-08 19:32 | 39.87228 | -75.23833 | 21 ft | 9 kts | 165° |
| 2026-05-08 19:32 | 39.87157 | -75.23821 | 26 ft | 11 kts | 187° |
| 2026-05-08 19:32 | 39.87123 | -75.23837 | 23 ft | 4 kts | 213° |
| 2026-05-08 19:32 | 39.87068 | -75.23875 | 22 ft | 10 kts | 207° |
| 2026-05-08 19:33 | 39.86988 | -75.23928 | 21 ft | 11 kts | 207° |
| 2026-05-08 19:33 | 39.86965 | -75.23943 | 20 ft | 0 kts | 207° |
| 2026-05-08 19:34 | 39.86954 | -75.23949 | 20 ft | 3 kts | 202° |
| 2026-05-08 19:34 | 39.86935 | -75.23955 | 19 ft | 3 kts | 186° |
| 2026-05-08 19:34 | 39.86915 | -75.23953 | 19 ft | 3 kts | 170° |
| 2026-05-08 19:34 | 39.86895 | -75.23945 | 18 ft | 0 kts | 163° |
| 2026-05-08 19:35 | 39.86891 | -75.23944 | 18 ft | 1 kts | 164° |
| 2026-05-08 19:35 | 39.86890 | -75.23944 | 18 ft | 0 kts | 164° |
| 2026-05-08 19:37 | 39.86888 | -75.23943 | 18 ft | 1 kts | 164° |
| 2026-05-08 19:37 | 39.86864 | -75.23934 | 19 ft | 6 kts | 164° |
| 2026-05-08 19:37 | 39.86820 | -75.23938 | 16 ft | 7 kts | 210° |
| 2026-05-08 19:38 | 39.86792 | -75.23984 | 16 ft | 7 kts | 242° |
| 2026-05-08 19:38 | 39.86781 | -75.24020 | 16 ft | 0 kts | 253° |
| 2026-05-08 19:38 | 39.86775 | -75.24049 | 15 ft | 23 kts | 254° |
| 2026-05-08 19:38 | 39.86654 | -75.24640 | 21 ft | 114 kts | 256° |
| 2026-05-08 19:39 | 39.86398 | -75.25939 | 285 ft | 170 kts | 256° |
| 2026-05-08 19:39 | 39.86145 | -75.27495 | 1396 ft | 185 kts | 259° |
| 2026-05-08 19:39 | 39.85797 | -75.29181 | 2450 ft | 200 kts | 246° |
| 2026-05-08 19:39 | 39.84902 | -75.30469 | 3096 ft | 185 kts | 219° |
| 2026-05-08 19:40 | 39.83841 | -75.31375 | 3847 ft | 184 kts | 219° |
| 2026-05-08 19:40 | 39.82705 | -75.32328 | 4590 ft | 204 kts | 218° |
| 2026-05-08 19:40 | 39.81515 | -75.33336 | 4922 ft | 207 kts | 218° |
| 2026-05-08 19:40 | 39.80305 | -75.34359 | 5236 ft | 205 kts | 218° |
| 2026-05-08 19:41 | 39.79023 | -75.35284 | 5617 ft | 215 kts | 210° |
| 2026-05-08 19:41 | 39.77632 | -75.36050 | 5986 ft | 218 kts | 208° |
| 2026-05-08 19:41 | 39.76235 | -75.36775 | 6340 ft | 217 kts | 208° |
| 2026-05-08 19:41 | 39.74816 | -75.37497 | 6693 ft | 218 kts | 208° |
| 2026-05-08 19:42 | 39.73409 | -75.38211 | 7040 ft | 219 kts | 208° |
| 2026-05-08 19:42 | 39.71911 | -75.38757 | 7370 ft | 230 kts | 188° |
| 2026-05-08 19:42 | 39.70332 | -75.38263 | 7723 ft | 246 kts | 156° |
| 2026-05-08 19:42 | 39.69063 | -75.36694 | 8091 ft | 264 kts | 123° |
| 2026-05-08 19:43 | 39.68455 | -75.34290 | 8513 ft | 298 kts | 95° |
| 2026-05-08 19:43 | 39.68658 | -75.31578 | 9261 ft | 310 kts | 76° |
| 2026-05-08 19:43 | 39.69150 | -75.28828 | 10301 ft | 315 kts | 73° |
| 2026-05-08 19:43 | 39.69676 | -75.25963 | 10805 ft | 340 kts | 73° |
| 2026-05-08 19:44 | 39.70241 | -75.22863 | 11121 ft | 367 kts | 73° |
| 2026-05-08 19:44 | 39.70832 | -75.19554 | 11874 ft | 379 kts | 72° |
| 2026-05-08 19:44 | 39.71214 | -75.17318 | 12486 ft | 383 kts | 72° |
| 2026-05-08 19:44 | 39.71962 | -75.12749 | 13666 ft | 394 kts | 71° |
| 2026-05-08 19:45 | 39.72470 | -75.09191 | 14415 ft | 404 kts | 74° |
| 2026-05-08 19:45 | 39.72780 | -75.06788 | 14955 ft | 408 kts | 75° |
| 2026-05-08 19:45 | 39.73250 | -75.03143 | 15775 ft | 414 kts | 75° |
| 2026-05-08 19:45 | 39.73902 | -74.98192 | 16704 ft | 422 kts | 75° |
| 2026-05-08 19:46 | 39.74240 | -74.95686 | 16915 ft | 423 kts | 75° |
| 2026-05-08 19:46 | 39.74769 | -74.91843 | 17011 ft | 441 kts | 75° |
| 2026-05-08 19:46 | 39.76644 | -74.82746 | 17002 ft | 449 kts | 66° |
| 2026-05-08 19:47 | 39.77321 | -74.80190 | 16994 ft | 448 kts | 65° |
| 2026-05-08 19:47 | 39.78332 | -74.76344 | 16989 ft | 447 kts | 66° |
| 2026-05-08 19:47 | 39.79277 | -74.72486 | 16989 ft | 450 kts | 71° |
| 2026-05-08 19:47 | 39.79779 | -74.68437 | 17005 ft | 454 kts | 79° |
| 2026-05-08 19:48 | 39.80095 | -74.64377 | 16998 ft | 455 kts | 81° |
| 2026-05-08 19:48 | 39.80385 | -74.60256 | 16997 ft | 455 kts | 81° |
| 2026-05-08 19:48 | 39.80681 | -74.56191 | 16990 ft | 456 kts | 81° |
| 2026-05-08 19:48 | 39.81002 | -74.52086 | 17000 ft | 456 kts | 80° |
| 2026-05-08 19:49 | 39.81337 | -74.47986 | 16998 ft | 456 kts | 80° |
| 2026-05-08 19:49 | 39.81673 | -74.43869 | 17005 ft | 456 kts | 81° |
| 2026-05-08 19:49 | 39.81835 | -74.39745 | 16994 ft | 459 kts | 86° |
| 2026-05-08 19:49 | 39.81833 | -74.35628 | 17005 ft | 459 kts | 88° |
| 2026-05-08 19:50 | 39.81784 | -74.31458 | 17000 ft | 459 kts | 88° |
| 2026-05-08 19:50 | 39.81738 | -74.27292 | 17000 ft | 459 kts | 88° |
| 2026-05-08 19:50 | 39.81711 | -74.23137 | 16996 ft | 459 kts | 87° |
| 2026-05-08 19:50 | 39.81701 | -74.19035 | 17002 ft | 458 kts | 87° |
| 2026-05-08 19:51 | 39.81694 | -74.14873 | 17001 ft | 459 kts | 87° |
| 2026-05-08 19:51 | 39.81686 | -74.10706 | 16997 ft | 459 kts | 87° |
| 2026-05-08 19:51 | 39.81714 | -74.06564 | 16985 ft | 453 kts | 82° |
| 2026-05-08 19:51 | 39.82420 | -74.02676 | 17003 ft | 431 kts | 62° |
| 2026-05-08 19:52 | 39.83801 | -73.99339 | 16993 ft | 416 kts | 47° |
| 2026-05-08 19:52 | 39.85739 | -73.96654 | 16980 ft | 397 kts | 27° |
| 2026-05-08 19:52 | 39.88046 | -73.94958 | 16999 ft | 375 kts | 15° |
| 2026-05-08 19:52 | 39.90158 | -73.93753 | 16978 ft | 359 kts | 13° |
| 2026-05-08 19:53 | 39.92397 | -73.92469 | 16961 ft | 342 kts | 14° |
| 2026-05-08 19:53 | 39.94498 | -73.91157 | 16751 ft | 332 kts | 16° |
| 2026-05-08 19:53 | 39.96511 | -73.89798 | 16155 ft | 326 kts | 18° |
| 2026-05-08 19:53 | 39.98515 | -73.88394 | 15425 ft | 324 kts | 18° |
| 2026-05-08 19:54 | 40.00450 | -73.87022 | 14760 ft | 321 kts | 19° |
| 2026-05-08 19:54 | 40.02362 | -73.85658 | 14146 ft | 317 kts | 19° |
| 2026-05-08 19:54 | 40.04265 | -73.84307 | 13495 ft | 312 kts | 19° |
| 2026-05-08 19:54 | 40.06181 | -73.82974 | 12716 ft | 310 kts | 19° |
| 2026-05-08 19:55 | 40.08077 | -73.81686 | 11933 ft | 310 kts | 19° |
| 2026-05-08 19:55 | 40.10016 | -73.80404 | 11384 ft | 309 kts | 19° |
| 2026-05-08 19:55 | 40.11954 | -73.79137 | 11233 ft | 310 kts | 19° |
| 2026-05-08 19:55 | 40.13871 | -73.77888 | 11113 ft | 311 kts | 19° |
| 2026-05-08 19:56 | 40.15796 | -73.76637 | 11022 ft | 309 kts | 19° |
| 2026-05-08 19:56 | 40.17734 | -73.75377 | 10999 ft | 308 kts | 19° |
| 2026-05-08 19:56 | 40.19641 | -73.74136 | 11004 ft | 309 kts | 19° |
| 2026-05-08 19:56 | 40.21572 | -73.72881 | 10997 ft | 310 kts | 19° |
| 2026-05-08 19:57 | 40.23513 | -73.71618 | 10990 ft | 310 kts | 19° |
| 2026-05-08 19:57 | 40.25454 | -73.70354 | 10988 ft | 309 kts | 19° |
| 2026-05-08 19:57 | 40.27319 | -73.69096 | 10985 ft | 313 kts | 25° |
| 2026-05-08 19:57 | 40.28963 | -73.67105 | 10706 ft | 329 kts | 48° |
| 2026-05-08 19:58 | 40.30160 | -73.64560 | 10213 ft | 333 kts | 56° |
| 2026-05-08 19:58 | 40.31271 | -73.61915 | 9723 ft | 330 kts | 57° |
| 2026-05-08 19:58 | 40.32362 | -73.59281 | 9180 ft | 326 kts | 57° |
| 2026-05-08 19:58 | 40.33436 | -73.56681 | 8642 ft | 320 kts | 57° |
| 2026-05-08 19:59 | 40.34482 | -73.54154 | 8130 ft | 317 kts | 57° |
| 2026-05-08 19:59 | 40.35410 | -73.51923 | 7651 ft | 317 kts | 57° |
| 2026-05-08 19:59 | 40.36457 | -73.49415 | 7112 ft | 314 kts | 57° |
| 2026-05-08 19:59 | 40.37511 | -73.46907 | 6553 ft | 311 kts | 57° |
| 2026-05-08 20:00 | 40.38549 | -73.44455 | 5989 ft | 308 kts | 57° |
| 2026-05-08 20:00 | 40.39588 | -73.42016 | 5422 ft | 305 kts | 57° |
| 2026-05-08 20:00 | 40.40622 | -73.39600 | 4863 ft | 301 kts | 57° |
| 2026-05-08 20:00 | 40.41876 | -73.37469 | 4302 ft | 290 kts | 34° |
| 2026-05-08 20:01 | 40.43615 | -73.36353 | 4085 ft | 272 kts | 6° |
| 2026-05-08 20:01 | 40.45372 | -73.36418 | 3986 ft | 237 kts | 336° |
| 2026-05-08 20:01 | 40.46662 | -73.37489 | 3985 ft | 208 kts | 310° |
| 2026-05-08 20:01 | 40.47610 | -73.38834 | 3980 ft | 199 kts | 308° |
| 2026-05-08 20:02 | 40.48529 | -73.40199 | 3978 ft | 197 kts | 307° |
| 2026-05-08 20:02 | 40.49437 | -73.41558 | 3988 ft | 198 kts | 307° |
| 2026-05-08 20:02 | 40.50349 | -73.42920 | 3996 ft | 198 kts | 307° |
| 2026-05-08 20:02 | 40.51252 | -73.44266 | 3993 ft | 199 kts | 307° |
| 2026-05-08 20:03 | 40.52177 | -73.45642 | 3999 ft | 201 kts | 307° |
| 2026-05-08 20:03 | 40.53104 | -73.47019 | 3994 ft | 201 kts | 307° |
| 2026-05-08 20:03 | 40.54052 | -73.48429 | 3631 ft | 214 kts | 307° |
| 2026-05-08 20:03 | 40.55054 | -73.49940 | 3148 ft | 222 kts | 307° |
| 2026-05-08 20:04 | 40.55900 | -73.51563 | 2998 ft | 209 kts | 289° |
| 2026-05-08 20:04 | 40.56327 | -73.53303 | 2986 ft | 198 kts | 285° |
| 2026-05-08 20:04 | 40.56703 | -73.55033 | 2972 ft | 194 kts | 284° |
| 2026-05-08 20:04 | 40.56989 | -73.56745 | 2972 ft | 193 kts | 272° |
| 2026-05-08 20:05 | 40.56931 | -73.58532 | 2957 ft | 198 kts | 267° |
| 2026-05-08 20:05 | 40.56849 | -73.60372 | 2724 ft | 203 kts | 267° |
| 2026-05-08 20:05 | 40.57022 | -73.62210 | 2498 ft | 202 kts | 288° |
| 2026-05-08 20:05 | 40.57684 | -73.63839 | 2225 ft | 206 kts | 302° |
| 2026-05-08 20:06 | 40.58609 | -73.65302 | 1994 ft | 207 kts | 308° |
| 2026-05-08 20:06 | 40.59590 | -73.66702 | 1697 ft | 209 kts | 310° |
| 2026-05-08 20:06 | 40.60583 | -73.68041 | 1428 ft | 196 kts | 310° |
| 2026-05-08 20:06 | 40.61433 | -73.69244 | 1399 ft | 164 kts | 304° |
| 2026-05-08 20:07 | 40.62073 | -73.70429 | 1069 ft | 155 kts | 295° |
| 2026-05-08 20:07 | 40.62539 | -73.71623 | 901 ft | 140 kts | 292° |
| 2026-05-08 20:07 | 40.62956 | -73.72817 | 646 ft | 144 kts | 296° |
| 2026-05-08 20:07 | 40.63448 | -73.73930 | 426 ft | 140 kts | 302° |
| 2026-05-08 20:08 | 40.63950 | -73.75004 | 234 ft | 136 kts | 300° |
| 2026-05-08 20:08 | 40.64425 | -73.76052 | 67 ft | 131 kts | 299° |
| 2026-05-08 20:08 | 40.64868 | -73.77025 | 21 ft | 113 kts | 301° |
| 2026-05-08 20:08 | 40.65194 | -73.77741 | 18 ft | 62 kts | 301° |
| 2026-05-08 20:09 | 40.65320 | -73.78016 | 19 ft | 33 kts | 301° |
| 2026-05-08 20:09 | 40.65420 | -73.78260 | 20 ft | 27 kts | 278° |
| 2026-05-08 20:09 | 40.65363 | -73.78459 | 20 ft | 17 kts | 240° |
| 2026-05-08 20:09 | 40.65341 | -73.78512 | 19 ft | 5 kts | 240° |
| 2026-05-08 20:10 | 40.65333 | -73.78531 | 19 ft | 0 kts | 241° |
| 2026-05-08 20:10 | 40.65330 | -73.78537 | 21 ft | 4 kts | 241° |
| 2026-05-08 20:10 | 40.65303 | -73.78601 | 21 ft | 7 kts | 240° |